sensor_id;sensor_type;location;lat;lon;timestamp;temperature;humidity
1878;DHT22;939;51.426;6.972;2023-06-10T00:00:49;21.20;99.90
1878;DHT22;939;51.426;6.972;2023-06-10T00:03:20;21.10;99.90
1878;DHT22;939;51.426;6.972;2023-06-10T00:05:50;21.10;99.90
1878;DHT22;939;51.426;6.972;2023-06-10T00:08:18;21.10;99.90
1878;DHT22;939;51.426;6.972;2023-06-10T00:10:45;21.00;99.90
1878;DHT22;939;51.426;6.972;2023-06-10T00:13:12;21.00;99.90
1878;DHT22;939;51.426;6.972;2023-06-10T00:15:39;21.00;99.90
1878;DHT22;939;51.426;6.972;2023-06-10T00:18:06;20.90;99.90
1878;DHT22;939;51.426;6.972;2023-06-10T00:20:35;20.90;99.90
1878;DHT22;939;51.426;6.972;2023-06-10T00:23:10;20.80;99.90
1878;DHT22;939;51.426;6.972;2023-06-10T00:25:37;20.80;99.90
1878;DHT22;939;51.426;6.972;2023-06-10T00:28:04;20.80;99.90
1878;DHT22;939;51.426;6.972;2023-06-10T00:30:31;20.70;99.90
1878;DHT22;939;51.426;6.972;2023-06-10T00:32:58;20.70;99.90
1878;DHT22;939;51.426;6.972;2023-06-10T00:35:25;20.70;99.90
1878;DHT22;939;51.426;6.972;2023-06-10T00:37:52;20.70;99.90
1878;DHT22;939;51.426;6.972;2023-06-10T00:40:20;20.70;99.90
1878;DHT22;939;51.426;6.972;2023-06-10T00:42:47;20.60;99.90
1878;DHT22;939;51.426;6.972;2023-06-10T00:45:14;20.60;99.90
1878;DHT22;939;51.426;6.972;2023-06-10T00:47:41;20.60;99.90
1878;DHT22;939;51.426;6.972;2023-06-10T00:50:08;20.60;99.90
1878;DHT22;939;51.426;6.972;2023-06-10T00:52:35;20.50;99.90
1878;DHT22;939;51.426;6.972;2023-06-10T00:55:03;20.50;99.90
1878;DHT22;939;51.426;6.972;2023-06-10T00:57:31;20.50;99.90
1878;DHT22;939;51.426;6.972;2023-06-10T00:59:58;20.50;99.90
1878;DHT22;939;51.426;6.972;2023-06-10T01:02:25;20.50;99.90
1878;DHT22;939;51.426;6.972;2023-06-10T01:04:52;20.50;99.90
1878;DHT22;939;51.426;6.972;2023-06-10T01:07:23;20.50;99.90
1878;DHT22;939;51.426;6.972;2023-06-10T01:09:55;20.50;99.90
1878;DHT22;939;51.426;6.972;2023-06-10T01:12:33;20.50;99.90
1878;DHT22;939;51.426;6.972;2023-06-10T01:15:01;20.40;99.90
1878;DHT22;939;51.426;6.972;2023-06-10T01:17:29;20.50;99.90
1878;DHT22;939;51.426;6.972;2023-06-10T01:19:56;20.40;99.90
1878;DHT22;939;51.426;6.972;2023-06-10T01:22:25;20.40;99.90
1878;DHT22;939;51.426;6.972;2023-06-10T01:24:54;20.40;99.90
1878;DHT22;939;51.426;6.972;2023-06-10T01:27:27;20.40;99.90
1878;DHT22;939;51.426;6.972;2023-06-10T01:29:59;20.40;99.90
1878;DHT22;939;51.426;6.972;2023-06-10T01:32:33;20.30;99.90
1878;DHT22;939;51.426;6.972;2023-06-10T01:35:02;20.30;99.90
1878;DHT22;939;51.426;6.972;2023-06-10T01:37:31;20.30;99.90
1878;DHT22;939;51.426;6.972;2023-06-10T01:40:00;20.30;99.90
1878;DHT22;939;51.426;6.972;2023-06-10T01:42:31;20.30;99.90
1878;DHT22;939;51.426;6.972;2023-06-10T01:44:58;20.30;99.90
1878;DHT22;939;51.426;6.972;2023-06-10T01:47:25;20.30;99.90
1878;DHT22;939;51.426;6.972;2023-06-10T01:49:53;20.30;99.90
1878;DHT22;939;51.426;6.972;2023-06-10T01:52:20;20.30;99.90
1878;DHT22;939;51.426;6.972;2023-06-10T01:54:48;20.30;99.90
1878;DHT22;939;51.426;6.972;2023-06-10T01:57:15;20.30;99.90
1878;DHT22;939;51.426;6.972;2023-06-10T01:59:43;20.30;99.90
1878;DHT22;939;51.426;6.972;2023-06-10T02:02:11;20.30;99.90
1878;DHT22;939;51.426;6.972;2023-06-10T02:04:38;20.30;99.90
1878;DHT22;939;51.426;6.972;2023-06-10T02:07:05;20.20;99.90
1878;DHT22;939;51.426;6.972;2023-06-10T02:09:32;20.20;99.90
1878;DHT22;939;51.426;6.972;2023-06-10T02:12:02;20.20;99.90
1878;DHT22;939;51.426;6.972;2023-06-10T02:14:29;20.20;99.90
1878;DHT22;939;51.426;6.972;2023-06-10T02:16:56;20.20;99.90
1878;DHT22;939;51.426;6.972;2023-06-10T02:19:23;20.10;99.90
1878;DHT22;939;51.426;6.972;2023-06-10T02:21:50;20.10;99.90
1878;DHT22;939;51.426;6.972;2023-06-10T02:24:19;20.10;99.90
1878;DHT22;939;51.426;6.972;2023-06-10T02:26:46;20.10;99.90
1878;DHT22;939;51.426;6.972;2023-06-10T02:29:14;20.10;99.90
1878;DHT22;939;51.426;6.972;2023-06-10T02:31:43;20.10;99.90
1878;DHT22;939;51.426;6.972;2023-06-10T02:34:10;20.00;99.90
1878;DHT22;939;51.426;6.972;2023-06-10T02:36:37;20.00;99.90
1878;DHT22;939;51.426;6.972;2023-06-10T02:39:04;20.00;99.90
1878;DHT22;939;51.426;6.972;2023-06-10T02:41:31;20.10;99.90
1878;DHT22;939;51.426;6.972;2023-06-10T02:43:58;20.00;99.90
1878;DHT22;939;51.426;6.972;2023-06-10T02:46:26;20.00;99.90
1878;DHT22;939;51.426;6.972;2023-06-10T02:48:54;20.00;99.90
1878;DHT22;939;51.426;6.972;2023-06-10T02:51:22;20.00;99.90
1878;DHT22;939;51.426;6.972;2023-06-10T02:53:49;20.00;99.90
1878;DHT22;939;51.426;6.972;2023-06-10T02:56:17;20.00;99.90
1878;DHT22;939;51.426;6.972;2023-06-10T02:58:43;20.00;99.90
1878;DHT22;939;51.426;6.972;2023-06-10T03:01:11;20.00;99.90
1878;DHT22;939;51.426;6.972;2023-06-10T03:03:40;20.00;99.90
1878;DHT22;939;51.426;6.972;2023-06-10T03:06:08;19.90;99.90
1878;DHT22;939;51.426;6.972;2023-06-10T03:08:35;19.90;99.90
1878;DHT22;939;51.426;6.972;2023-06-10T03:11:02;19.90;99.90
1878;DHT22;939;51.426;6.972;2023-06-10T03:13:29;19.90;99.90
1878;DHT22;939;51.426;6.972;2023-06-10T03:15:56;19.80;99.90
1878;DHT22;939;51.426;6.972;2023-06-10T03:18:27;19.80;99.90
1878;DHT22;939;51.426;6.972;2023-06-10T03:20:55;19.80;99.90
1878;DHT22;939;51.426;6.972;2023-06-10T03:23:22;19.80;99.90
1878;DHT22;939;51.426;6.972;2023-06-10T03:25:49;19.80;99.90
1878;DHT22;939;51.426;6.972;2023-06-10T03:28:16;19.80;99.90
1878;DHT22;939;51.426;6.972;2023-06-10T03:30:43;19.80;99.90
1878;DHT22;939;51.426;6.972;2023-06-10T03:33:17;19.80;99.90
1878;DHT22;939;51.426;6.972;2023-06-10T03:36:03;19.80;99.90
1878;DHT22;939;51.426;6.972;2023-06-10T03:38:30;19.80;99.90
1878;DHT22;939;51.426;6.972;2023-06-10T03:40:57;19.80;99.90
1878;DHT22;939;51.426;6.972;2023-06-10T03:43:23;19.80;99.90
1878;DHT22;939;51.426;6.972;2023-06-10T03:45:51;19.80;99.90
1878;DHT22;939;51.426;6.972;2023-06-10T03:48:20;19.80;99.90
1878;DHT22;939;51.426;6.972;2023-06-10T03:50:47;19.80;99.90
1878;DHT22;939;51.426;6.972;2023-06-10T03:53:17;19.80;99.90
1878;DHT22;939;51.426;6.972;2023-06-10T03:55:44;19.70;99.90
1878;DHT22;939;51.426;6.972;2023-06-10T03:58:11;19.80;99.90
1878;DHT22;939;51.426;6.972;2023-06-10T04:00:40;19.70;99.90
1878;DHT22;939;51.426;6.972;2023-06-10T04:03:08;19.70;99.90
1878;DHT22;939;51.426;6.972;2023-06-10T04:05:40;19.70;99.90
1878;DHT22;939;51.426;6.972;2023-06-10T04:08:07;19.70;99.90
1878;DHT22;939;51.426;6.972;2023-06-10T04:10:35;19.70;99.90
1878;DHT22;939;51.426;6.972;2023-06-10T04:13:02;19.70;99.90
1878;DHT22;939;51.426;6.972;2023-06-10T04:15:29;19.70;99.90
1878;DHT22;939;51.426;6.972;2023-06-10T04:17:58;19.70;99.90
1878;DHT22;939;51.426;6.972;2023-06-10T04:20:25;19.70;99.90
1878;DHT22;939;51.426;6.972;2023-06-10T04:22:52;19.70;99.90
1878;DHT22;939;51.426;6.972;2023-06-10T04:25:18;19.70;99.90
1878;DHT22;939;51.426;6.972;2023-06-10T04:27:47;19.70;99.90
1878;DHT22;939;51.426;6.972;2023-06-10T04:30:14;19.70;99.90
1878;DHT22;939;51.426;6.972;2023-06-10T04:32:41;19.70;99.90
1878;DHT22;939;51.426;6.972;2023-06-10T04:35:11;19.70;99.90
1878;DHT22;939;51.426;6.972;2023-06-10T04:37:38;19.70;99.90
1878;DHT22;939;51.426;6.972;2023-06-10T04:40:06;19.70;99.90
1878;DHT22;939;51.426;6.972;2023-06-10T04:42:33;19.70;99.90
1878;DHT22;939;51.426;6.972;2023-06-10T04:45:01;19.70;99.90
1878;DHT22;939;51.426;6.972;2023-06-10T04:47:29;19.70;99.90
1878;DHT22;939;51.426;6.972;2023-06-10T04:49:58;19.70;99.90
1878;DHT22;939;51.426;6.972;2023-06-10T04:52:25;19.70;99.90
1878;DHT22;939;51.426;6.972;2023-06-10T04:54:52;19.70;99.90
1878;DHT22;939;51.426;6.972;2023-06-10T04:57:19;19.80;99.90
1878;DHT22;939;51.426;6.972;2023-06-10T04:59:46;19.80;99.90
1878;DHT22;939;51.426;6.972;2023-06-10T05:02:14;19.80;99.90
1878;DHT22;939;51.426;6.972;2023-06-10T05:04:41;19.80;99.90
1878;DHT22;939;51.426;6.972;2023-06-10T05:07:08;19.80;99.90
1878;DHT22;939;51.426;6.972;2023-06-10T05:09:34;19.80;99.90
1878;DHT22;939;51.426;6.972;2023-06-10T05:12:01;19.80;99.90
1878;DHT22;939;51.426;6.972;2023-06-10T05:14:28;19.80;99.90
1878;DHT22;939;51.426;6.972;2023-06-10T05:16:55;19.90;99.90
1878;DHT22;939;51.426;6.972;2023-06-10T05:19:24;19.90;99.90
1878;DHT22;939;51.426;6.972;2023-06-10T05:21:50;19.80;99.90
1878;DHT22;939;51.426;6.972;2023-06-10T05:24:17;19.80;99.90
1878;DHT22;939;51.426;6.972;2023-06-10T05:26:45;19.80;99.90
1878;DHT22;939;51.426;6.972;2023-06-10T05:29:12;19.80;99.90
1878;DHT22;939;51.426;6.972;2023-06-10T05:31:40;19.90;99.90
1878;DHT22;939;51.426;6.972;2023-06-10T05:34:07;19.90;99.90
1878;DHT22;939;51.426;6.972;2023-06-10T05:36:35;19.90;99.90
1878;DHT22;939;51.426;6.972;2023-06-10T05:39:02;19.90;99.90
1878;DHT22;939;51.426;6.972;2023-06-10T05:41:29;20.00;99.90
1878;DHT22;939;51.426;6.972;2023-06-10T05:43:56;20.00;99.90
1878;DHT22;939;51.426;6.972;2023-06-10T05:46:23;20.00;99.90
1878;DHT22;939;51.426;6.972;2023-06-10T05:48:50;20.00;99.90
1878;DHT22;939;51.426;6.972;2023-06-10T05:51:17;20.10;99.90
1878;DHT22;939;51.426;6.972;2023-06-10T05:53:45;20.10;99.90
1878;DHT22;939;51.426;6.972;2023-06-10T05:56:12;20.10;99.90
1878;DHT22;939;51.426;6.972;2023-06-10T05:58:39;20.10;99.90
1878;DHT22;939;51.426;6.972;2023-06-10T06:01:06;20.10;99.90
1878;DHT22;939;51.426;6.972;2023-06-10T06:03:33;20.20;99.90
1878;DHT22;939;51.426;6.972;2023-06-10T06:06:00;20.20;99.90
1878;DHT22;939;51.426;6.972;2023-06-10T06:08:27;20.30;99.90
1878;DHT22;939;51.426;6.972;2023-06-10T06:10:55;20.30;99.90
1878;DHT22;939;51.426;6.972;2023-06-10T06:13:22;20.30;99.90
1878;DHT22;939;51.426;6.972;2023-06-10T06:15:50;20.40;99.90
1878;DHT22;939;51.426;6.972;2023-06-10T06:18:16;20.30;99.90
1878;DHT22;939;51.426;6.972;2023-06-10T06:20:44;20.40;99.90
1878;DHT22;939;51.426;6.972;2023-06-10T06:23:10;20.40;99.90
1878;DHT22;939;51.426;6.972;2023-06-10T06:25:37;20.50;99.90
1878;DHT22;939;51.426;6.972;2023-06-10T06:28:06;20.50;99.90
1878;DHT22;939;51.426;6.972;2023-06-10T06:30:32;20.60;99.90
1878;DHT22;939;51.426;6.972;2023-06-10T06:32:59;20.60;99.90
1878;DHT22;939;51.426;6.972;2023-06-10T06:35:26;20.60;99.90
1878;DHT22;939;51.426;6.972;2023-06-10T06:37:53;20.60;99.90
1878;DHT22;939;51.426;6.972;2023-06-10T06:40:20;20.70;99.90
1878;DHT22;939;51.426;6.972;2023-06-10T06:42:47;20.70;99.90
1878;DHT22;939;51.426;6.972;2023-06-10T06:45:15;20.80;99.90
1878;DHT22;939;51.426;6.972;2023-06-10T06:47:42;20.90;99.90
1878;DHT22;939;51.426;6.972;2023-06-10T06:50:09;20.90;99.90
1878;DHT22;939;51.426;6.972;2023-06-10T06:52:36;20.90;99.90
1878;DHT22;939;51.426;6.972;2023-06-10T06:55:03;21.00;99.90
1878;DHT22;939;51.426;6.972;2023-06-10T06:57:30;21.00;99.90
1878;DHT22;939;51.426;6.972;2023-06-10T06:59:57;21.10;99.90
1878;DHT22;939;51.426;6.972;2023-06-10T07:02:26;21.20;99.90
1878;DHT22;939;51.426;6.972;2023-06-10T07:04:52;21.10;99.90
1878;DHT22;939;51.426;6.972;2023-06-10T07:07:21;21.20;99.90
1878;DHT22;939;51.426;6.972;2023-06-10T07:09:48;21.30;99.90
1878;DHT22;939;51.426;6.972;2023-06-10T07:12:15;21.30;99.90
1878;DHT22;939;51.426;6.972;2023-06-10T07:14:43;21.40;99.90
1878;DHT22;939;51.426;6.972;2023-06-10T07:17:10;21.40;99.90
1878;DHT22;939;51.426;6.972;2023-06-10T07:19:38;21.50;99.90
1878;DHT22;939;51.426;6.972;2023-06-10T07:22:05;21.50;99.90
1878;DHT22;939;51.426;6.972;2023-06-10T07:24:32;21.50;99.90
1878;DHT22;939;51.426;6.972;2023-06-10T07:26:59;21.50;99.90
1878;DHT22;939;51.426;6.972;2023-06-10T07:29:26;21.60;99.90
1878;DHT22;939;51.426;6.972;2023-06-10T07:31:53;21.70;99.90
1878;DHT22;939;51.426;6.972;2023-06-10T07:34:20;21.70;99.90
1878;DHT22;939;51.426;6.972;2023-06-10T07:36:48;21.70;99.90
1878;DHT22;939;51.426;6.972;2023-06-10T07:39:15;21.80;99.90
1878;DHT22;939;51.426;6.972;2023-06-10T07:41:42;21.90;99.90
1878;DHT22;939;51.426;6.972;2023-06-10T07:44:08;21.90;99.90
1878;DHT22;939;51.426;6.972;2023-06-10T07:46:35;21.90;99.90
1878;DHT22;939;51.426;6.972;2023-06-10T07:49:02;22.00;99.90
1878;DHT22;939;51.426;6.972;2023-06-10T07:51:29;22.00;99.80
1878;DHT22;939;51.426;6.972;2023-06-10T07:53:58;22.10;99.90
1878;DHT22;939;51.426;6.972;2023-06-10T07:56:24;22.20;99.60
1878;DHT22;939;51.426;6.972;2023-06-10T07:58:52;22.20;99.20
1878;DHT22;939;51.426;6.972;2023-06-10T08:01:18;22.20;99.20
1878;DHT22;939;51.426;6.972;2023-06-10T08:03:45;22.20;99.00
1878;DHT22;939;51.426;6.972;2023-06-10T08:06:12;22.30;98.90
1878;DHT22;939;51.426;6.972;2023-06-10T08:08:39;22.30;99.10
1878;DHT22;939;51.426;6.972;2023-06-10T08:11:10;22.30;97.50
1878;DHT22;939;51.426;6.972;2023-06-10T08:13:37;22.40;97.70
1878;DHT22;939;51.426;6.972;2023-06-10T08:16:05;22.50;98.30
1878;DHT22;939;51.426;6.972;2023-06-10T08:18:32;22.60;98.00
1878;DHT22;939;51.426;6.972;2023-06-10T08:20:59;22.60;98.20
1878;DHT22;939;51.426;6.972;2023-06-10T08:23:26;22.70;98.50
1878;DHT22;939;51.426;6.972;2023-06-10T08:25:53;22.70;98.80
1878;DHT22;939;51.426;6.972;2023-06-10T08:28:21;22.80;98.90
1878;DHT22;939;51.426;6.972;2023-06-10T08:30:48;22.90;99.20
1878;DHT22;939;51.426;6.972;2023-06-10T08:33:15;22.90;99.00
1878;DHT22;939;51.426;6.972;2023-06-10T14:36:32;30.00;20.20
1878;DHT22;939;51.426;6.972;2023-06-10T14:38:58;30.10;19.30
1878;DHT22;939;51.426;6.972;2023-06-10T14:41:25;30.10;19.00
1878;DHT22;939;51.426;6.972;2023-06-10T14:43:52;30.10;20.50
1878;DHT22;939;51.426;6.972;2023-06-10T14:46:19;30.10;18.40
1878;DHT22;939;51.426;6.972;2023-06-10T14:48:46;30.10;20.20
1878;DHT22;939;51.426;6.972;2023-06-10T14:51:13;29.80;17.60
1878;DHT22;939;51.426;6.972;2023-06-10T14:53:41;29.80;19.00
1878;DHT22;939;51.426;6.972;2023-06-10T14:56:08;29.80;19.70
1878;DHT22;939;51.426;6.972;2023-06-10T14:58:35;29.80;20.20
1878;DHT22;939;51.426;6.972;2023-06-10T15:01:02;29.80;19.50
1878;DHT22;939;51.426;6.972;2023-06-10T15:03:29;29.80;19.10
1878;DHT22;939;51.426;6.972;2023-06-10T15:05:56;29.80;20.20
1878;DHT22;939;51.426;6.972;2023-06-10T15:08:23;29.90;20.80
1878;DHT22;939;51.426;6.972;2023-06-10T15:10:51;29.80;19.30
1878;DHT22;939;51.426;6.972;2023-06-10T15:13:18;29.80;20.40
1878;DHT22;939;51.426;6.972;2023-06-10T15:15:45;29.80;18.30
1878;DHT22;939;51.426;6.972;2023-06-10T15:18:12;29.70;18.70
1878;DHT22;939;51.426;6.972;2023-06-10T15:20:39;29.70;18.80
1878;DHT22;939;51.426;6.972;2023-06-10T15:23:05;29.80;20.30
1878;DHT22;939;51.426;6.972;2023-06-10T15:25:33;29.80;19.50
1878;DHT22;939;51.426;6.972;2023-06-10T15:28:02;29.80;19.80
1878;DHT22;939;51.426;6.972;2023-06-10T15:30:29;29.80;19.50
1878;DHT22;939;51.426;6.972;2023-06-10T15:32:56;29.80;20.50
1878;DHT22;939;51.426;6.972;2023-06-10T15:35:23;29.90;21.10
1878;DHT22;939;51.426;6.972;2023-06-10T15:37:51;29.90;21.00
1878;DHT22;939;51.426;6.972;2023-06-10T15:40:18;29.90;19.70
1878;DHT22;939;51.426;6.972;2023-06-10T15:42:45;29.80;19.50
1878;DHT22;939;51.426;6.972;2023-06-10T15:45:13;29.90;20.60
1878;DHT22;939;51.426;6.972;2023-06-10T15:47:40;29.90;20.80
1878;DHT22;939;51.426;6.972;2023-06-10T15:50:08;29.80;20.40
1878;DHT22;939;51.426;6.972;2023-06-10T15:52:35;29.80;19.70
1878;DHT22;939;51.426;6.972;2023-06-10T15:55:02;29.70;20.50
1878;DHT22;939;51.426;6.972;2023-06-10T15:57:29;29.70;20.00
1878;DHT22;939;51.426;6.972;2023-06-10T15:59:56;29.70;20.70
1878;DHT22;939;51.426;6.972;2023-06-10T16:02:24;29.60;20.50
1878;DHT22;939;51.426;6.972;2023-06-10T16:05:16;29.50;19.80
1878;DHT22;939;51.426;6.972;2023-06-10T16:07:42;29.30;20.20
1878;DHT22;939;51.426;6.972;2023-06-10T16:10:09;29.30;21.60
1878;DHT22;939;51.426;6.972;2023-06-10T16:12:39;29.30;20.80
1878;DHT22;939;51.426;6.972;2023-06-10T16:15:07;29.30;21.40
1878;DHT22;939;51.426;6.972;2023-06-10T16:17:36;29.20;21.30
1878;DHT22;939;51.426;6.972;2023-06-10T16:20:05;29.30;22.30
1878;DHT22;939;51.426;6.972;2023-06-10T16:22:32;29.20;21.90
1878;DHT22;939;51.426;6.972;2023-06-10T16:24:58;29.10;21.60
1878;DHT22;939;51.426;6.972;2023-06-10T16:27:25;29.00;20.60
1878;DHT22;939;51.426;6.972;2023-06-10T16:29:52;29.00;21.30
1878;DHT22;939;51.426;6.972;2023-06-10T16:32:19;28.90;21.90
1878;DHT22;939;51.426;6.972;2023-06-10T16:34:47;28.90;22.80
1878;DHT22;939;51.426;6.972;2023-06-10T16:37:14;28.90;23.10
1878;DHT22;939;51.426;6.972;2023-06-10T16:39:41;28.80;21.50
1878;DHT22;939;51.426;6.972;2023-06-10T16:42:08;28.70;23.10
1878;DHT22;939;51.426;6.972;2023-06-10T16:44:37;28.70;23.60
1878;DHT22;939;51.426;6.972;2023-06-10T16:47:04;28.70;23.90
1878;DHT22;939;51.426;6.972;2023-06-10T16:49:31;28.60;23.30
1878;DHT22;939;51.426;6.972;2023-06-10T16:52:01;28.50;23.20
1878;DHT22;939;51.426;6.972;2023-06-10T16:54:27;28.40;23.50
1878;DHT22;939;51.426;6.972;2023-06-10T16:56:54;28.40;23.70
1878;DHT22;939;51.426;6.972;2023-06-10T16:59:21;28.30;23.70
1878;DHT22;939;51.426;6.972;2023-06-10T17:01:48;28.30;24.20
1878;DHT22;939;51.426;6.972;2023-06-10T17:04:15;28.20;24.50
1878;DHT22;939;51.426;6.972;2023-06-10T17:06:42;28.20;24.90
1878;DHT22;939;51.426;6.972;2023-06-10T17:09:10;28.20;24.50
1878;DHT22;939;51.426;6.972;2023-06-10T17:11:36;28.10;24.70
1878;DHT22;939;51.426;6.972;2023-06-10T17:14:03;28.00;24.80
1878;DHT22;939;51.426;6.972;2023-06-10T17:16:30;27.90;25.10
1878;DHT22;939;51.426;6.972;2023-06-10T17:18:57;27.90;24.90
1878;DHT22;939;51.426;6.972;2023-06-10T17:21:24;27.90;26.10
1878;DHT22;939;51.426;6.972;2023-06-10T17:23:52;27.80;25.00
1878;DHT22;939;51.426;6.972;2023-06-10T17:26:20;27.90;25.90
1878;DHT22;939;51.426;6.972;2023-06-10T17:28:47;27.80;25.20
1878;DHT22;939;51.426;6.972;2023-06-10T17:31:14;27.80;26.60
1878;DHT22;939;51.426;6.972;2023-06-10T17:33:41;27.80;26.20
1878;DHT22;939;51.426;6.972;2023-06-10T17:36:08;27.70;25.70
1878;DHT22;939;51.426;6.972;2023-06-10T17:38:35;27.60;24.90
1878;DHT22;939;51.426;6.972;2023-06-10T17:41:01;27.60;26.30
1878;DHT22;939;51.426;6.972;2023-06-10T17:43:30;27.60;27.40
1878;DHT22;939;51.426;6.972;2023-06-10T17:45:56;27.60;28.10
1878;DHT22;939;51.426;6.972;2023-06-10T17:48:23;27.60;28.40
1878;DHT22;939;51.426;6.972;2023-06-10T17:50:50;27.50;27.20
1878;DHT22;939;51.426;6.972;2023-06-10T17:53:17;27.50;27.80
1878;DHT22;939;51.426;6.972;2023-06-10T17:55:44;27.50;28.00
1878;DHT22;939;51.426;6.972;2023-06-10T17:58:11;27.40;28.00
1878;DHT22;939;51.426;6.972;2023-06-10T18:00:39;27.40;27.20
1878;DHT22;939;51.426;6.972;2023-06-10T18:03:06;27.40;28.20
1878;DHT22;939;51.426;6.972;2023-06-10T18:05:34;27.30;28.50
1878;DHT22;939;51.426;6.972;2023-06-10T18:08:01;27.30;28.60
1878;DHT22;939;51.426;6.972;2023-06-10T18:10:28;27.30;28.10
1878;DHT22;939;51.426;6.972;2023-06-10T18:12:54;27.20;28.30
1878;DHT22;939;51.426;6.972;2023-06-10T18:15:22;27.20;28.40
1878;DHT22;939;51.426;6.972;2023-06-10T18:17:50;27.20;28.60
1878;DHT22;939;51.426;6.972;2023-06-10T18:20:17;27.10;28.90
1878;DHT22;939;51.426;6.972;2023-06-10T18:22:44;27.10;28.80
1878;DHT22;939;51.426;6.972;2023-06-10T18:25:11;27.10;30.00
1878;DHT22;939;51.426;6.972;2023-06-10T18:27:38;27.10;30.40
1878;DHT22;939;51.426;6.972;2023-06-10T18:30:06;27.10;31.50
1878;DHT22;939;51.426;6.972;2023-06-10T18:32:33;27.00;30.50
1878;DHT22;939;51.426;6.972;2023-06-10T18:35:01;26.90;29.80
1878;DHT22;939;51.426;6.972;2023-06-10T18:37:28;26.90;30.50
1878;DHT22;939;51.426;6.972;2023-06-10T18:39:55;26.80;30.80
1878;DHT22;939;51.426;6.972;2023-06-10T18:42:22;26.80;30.00
1878;DHT22;939;51.426;6.972;2023-06-10T18:44:49;26.70;30.80
1878;DHT22;939;51.426;6.972;2023-06-10T18:47:16;26.70;31.30
1878;DHT22;939;51.426;6.972;2023-06-10T18:49:43;26.60;31.50
1878;DHT22;939;51.426;6.972;2023-06-10T18:52:12;26.60;31.80
1878;DHT22;939;51.426;6.972;2023-06-10T18:54:39;26.50;32.20
1878;DHT22;939;51.426;6.972;2023-06-10T18:57:06;26.50;32.60
1878;DHT22;939;51.426;6.972;2023-06-10T18:59:33;26.40;33.40
1878;DHT22;939;51.426;6.972;2023-06-10T19:02:00;26.40;34.30
1878;DHT22;939;51.426;6.972;2023-06-10T19:04:27;26.40;34.80
1878;DHT22;939;51.426;6.972;2023-06-10T19:06:54;26.40;35.10
1878;DHT22;939;51.426;6.972;2023-06-10T19:09:22;26.30;34.70
1878;DHT22;939;51.426;6.972;2023-06-10T19:11:49;26.30;34.70
1878;DHT22;939;51.426;6.972;2023-06-10T19:14:16;26.30;35.80
1878;DHT22;939;51.426;6.972;2023-06-10T19:16:42;26.30;37.00
1878;DHT22;939;51.426;6.972;2023-06-10T19:19:09;26.20;36.60
1878;DHT22;939;51.426;6.972;2023-06-10T19:21:36;26.20;37.70
1878;DHT22;939;51.426;6.972;2023-06-10T19:24:03;26.10;38.20
1878;DHT22;939;51.426;6.972;2023-06-10T19:26:33;26.10;38.10
1878;DHT22;939;51.426;6.972;2023-06-10T19:29:00;26.10;37.90
1878;DHT22;939;51.426;6.972;2023-06-10T19:31:27;26.00;37.90
1878;DHT22;939;51.426;6.972;2023-06-10T19:33:54;26.00;39.50
1878;DHT22;939;51.426;6.972;2023-06-10T19:36:21;25.90;40.40
1878;DHT22;939;51.426;6.972;2023-06-10T19:38:48;25.90;40.60
1878;DHT22;939;51.426;6.972;2023-06-10T19:41:16;25.80;39.00
1878;DHT22;939;51.426;6.972;2023-06-10T19:43:45;25.70;39.20
1878;DHT22;939;51.426;6.972;2023-06-10T19:46:12;25.70;40.00
1878;DHT22;939;51.426;6.972;2023-06-10T19:48:46;25.60;38.70
1878;DHT22;939;51.426;6.972;2023-06-10T19:51:14;25.60;39.60
1878;DHT22;939;51.426;6.972;2023-06-10T19:53:43;25.60;39.80
1878;DHT22;939;51.426;6.972;2023-06-10T19:56:10;25.50;40.10
1878;DHT22;939;51.426;6.972;2023-06-10T19:58:37;25.40;39.80
1878;DHT22;939;51.426;6.972;2023-06-10T20:01:06;25.40;40.60
1878;DHT22;939;51.426;6.972;2023-06-10T20:03:32;25.40;40.60
1878;DHT22;939;51.426;6.972;2023-06-10T20:05:59;25.30;41.50
1878;DHT22;939;51.426;6.972;2023-06-10T20:08:26;25.30;41.20
1878;DHT22;939;51.426;6.972;2023-06-10T20:10:53;25.30;41.60
1878;DHT22;939;51.426;6.972;2023-06-10T20:13:21;25.20;42.20
1878;DHT22;939;51.426;6.972;2023-06-10T20:15:48;25.20;43.50
1878;DHT22;939;51.426;6.972;2023-06-10T20:18:16;25.20;44.20
1878;DHT22;939;51.426;6.972;2023-06-10T20:20:43;25.10;44.20
1878;DHT22;939;51.426;6.972;2023-06-10T20:23:13;25.10;44.90
1878;DHT22;939;51.426;6.972;2023-06-10T20:25:40;25.10;45.70
1878;DHT22;939;51.426;6.972;2023-06-10T20:28:06;25.00;46.60
1878;DHT22;939;51.426;6.972;2023-06-10T20:30:33;25.00;47.50
1878;DHT22;939;51.426;6.972;2023-06-10T20:33:03;24.90;48.20
